Guaracai, Brazil
Current Conditions -  °F | °C
As of 7:00 PM on Friday 28 Nov 2014 (Local Time) from SBDN Reporting Station
Scattered Clouds Scattered Clouds  
Wind Chill: 84°   Ceiling: Unl
Heat Index: 86°   Visibility: 6mi
Dew Point: 64°   Wind: 9mph
Humidity: 51%   Direction: 100°E
Pressure: 29.88"   Gusts: NA
Location:  21.03°S, 51.21°W
Report Text: SBDN 282100Z 10008KT 9999 SCT050TCU 29/18 Q1012
Loading
Personal Weather Stations






























Interactive Weather Map New forecast layout! Learn more

10-Day Weather Forecast

Advertisements
Track Severe Weather on mobile